sensor_id;sensor_type;location;lat;lon;timestamp;temperature;humidity
53045;DHT22;38930;52.766;6.884;2023-12-07T00:00:19;2.60;99.90
53045;DHT22;38930;52.766;6.884;2023-12-07T00:02:44;2.60;99.90
53045;DHT22;38930;52.766;6.884;2023-12-07T00:05:10;2.60;99.90
53045;DHT22;38930;52.766;6.884;2023-12-07T00:07:35;2.60;99.90
53045;DHT22;38930;52.766;6.884;2023-12-07T00:10:01;2.60;99.90
53045;DHT22;38930;52.766;6.884;2023-12-07T00:12:27;2.60;99.90
53045;DHT22;38930;52.766;6.884;2023-12-07T00:14:52;2.60;99.90
53045;DHT22;38930;52.766;6.884;2023-12-07T00:17:18;2.60;99.90
53045;DHT22;38930;52.766;6.884;2023-12-07T00:19:44;2.50;99.90
53045;DHT22;38930;52.766;6.884;2023-12-07T00:22:10;2.60;99.90
53045;DHT22;38930;52.766;6.884;2023-12-07T00:24:35;2.50;99.90
53045;DHT22;38930;52.766;6.884;2023-12-07T00:27:01;2.50;99.90
53045;DHT22;38930;52.766;6.884;2023-12-07T00:29:26;2.50;99.90
53045;DHT22;38930;52.766;6.884;2023-12-07T00:31:52;2.50;99.90
53045;DHT22;38930;52.766;6.884;2023-12-07T00:34:17;2.50;99.90
53045;DHT22;38930;52.766;6.884;2023-12-07T00:36:44;2.50;99.90
53045;DHT22;38930;52.766;6.884;2023-12-07T00:39:09;2.50;99.90
53045;DHT22;38930;52.766;6.884;2023-12-07T00:41:35;2.40;99.90
53045;DHT22;38930;52.766;6.884;2023-12-07T00:44:01;2.40;99.90
53045;DHT22;38930;52.766;6.884;2023-12-07T00:46:26;2.40;99.90
53045;DHT22;38930;52.766;6.884;2023-12-07T00:48:52;2.40;99.90
53045;DHT22;38930;52.766;6.884;2023-12-07T00:51:17;2.50;99.90
53045;DHT22;38930;52.766;6.884;2023-12-07T00:53:43;2.40;99.90
53045;DHT22;38930;52.766;6.884;2023-12-07T00:56:09;3.10;99.90
53045;DHT22;38930;52.766;6.884;2023-12-07T00:58:35;2.40;99.90
53045;DHT22;38930;52.766;6.884;2023-12-07T01:01:01;2.40;99.90
53045;DHT22;38930;52.766;6.884;2023-12-07T01:03:27;2.40;99.90
53045;DHT22;38930;52.766;6.884;2023-12-07T01:05:52;2.40;99.90
53045;DHT22;38930;52.766;6.884;2023-12-07T01:08:18;2.40;99.90
53045;DHT22;38930;52.766;6.884;2023-12-07T01:10:43;2.40;99.90
53045;DHT22;38930;52.766;6.884;2023-12-07T01:13:09;2.40;99.90
53045;DHT22;38930;52.766;6.884;2023-12-07T01:15:34;2.40;99.90
53045;DHT22;38930;52.766;6.884;2023-12-07T01:18:00;2.40;99.90
53045;DHT22;38930;52.766;6.884;2023-12-07T01:20:26;2.40;99.90
53045;DHT22;38930;52.766;6.884;2023-12-07T01:22:51;2.40;99.90
53045;DHT22;38930;52.766;6.884;2023-12-07T01:25:17;2.40;99.90
53045;DHT22;38930;52.766;6.884;2023-12-07T01:27:47;2.40;99.90
53045;DHT22;38930;52.766;6.884;2023-12-07T01:30:13;2.40;99.90
53045;DHT22;38930;52.766;6.884;2023-12-07T01:32:38;2.40;99.90
53045;DHT22;38930;52.766;6.884;2023-12-07T01:35:04;2.40;99.90
53045;DHT22;38930;52.766;6.884;2023-12-07T01:37:30;2.40;99.90
53045;DHT22;38930;52.766;6.884;2023-12-07T01:39:56;2.40;99.90
53045;DHT22;38930;52.766;6.884;2023-12-07T01:42:21;2.40;99.90
53045;DHT22;38930;52.766;6.884;2023-12-07T01:44:47;2.40;99.90
53045;DHT22;38930;52.766;6.884;2023-12-07T01:47:13;2.40;99.90
53045;DHT22;38930;52.766;6.884;2023-12-07T01:49:39;2.40;99.90
53045;DHT22;38930;52.766;6.884;2023-12-07T01:52:05;2.40;99.90
53045;DHT22;38930;52.766;6.884;2023-12-07T01:54:32;2.40;99.90
53045;DHT22;38930;52.766;6.884;2023-12-07T01:56:58;2.40;99.90
53045;DHT22;38930;52.766;6.884;2023-12-07T01:59:24;2.40;99.90
53045;DHT22;38930;52.766;6.884;2023-12-07T02:01:49;2.40;99.90
53045;DHT22;38930;52.766;6.884;2023-12-07T02:04:16;2.40;99.90
53045;DHT22;38930;52.766;6.884;2023-12-07T02:06:42;2.40;99.90
53045;DHT22;38930;52.766;6.884;2023-12-07T02:09:08;2.40;99.90
53045;DHT22;38930;52.766;6.884;2023-12-07T02:11:34;2.40;99.90
53045;DHT22;38930;52.766;6.884;2023-12-07T02:14:00;2.90;99.90
53045;DHT22;38930;52.766;6.884;2023-12-07T02:17:01;2.50;99.90
53045;DHT22;38930;52.766;6.884;2023-12-07T02:19:55;2.40;99.90
53045;DHT22;38930;52.766;6.884;2023-12-07T02:22:29;2.40;99.90
53045;DHT22;38930;52.766;6.884;2023-12-07T02:25:18;2.40;99.90
53045;DHT22;38930;52.766;6.884;2023-12-07T02:27:44;2.40;99.90
53045;DHT22;38930;52.766;6.884;2023-12-07T02:30:14;2.40;99.90
53045;DHT22;38930;52.766;6.884;2023-12-07T02:32:42;2.40;99.90
53045;DHT22;38930;52.766;6.884;2023-12-07T02:35:09;2.40;99.90
53045;DHT22;38930;52.766;6.884;2023-12-07T02:37:42;2.40;99.90
53045;DHT22;38930;52.766;6.884;2023-12-07T02:40:11;2.40;99.90
53045;DHT22;38930;52.766;6.884;2023-12-07T02:42:38;2.40;99.90
53045;DHT22;38930;52.766;6.884;2023-12-07T02:45:07;2.30;99.90
53045;DHT22;38930;52.766;6.884;2023-12-07T02:47:33;2.30;99.90
53045;DHT22;38930;52.766;6.884;2023-12-07T02:49:59;2.30;99.90
53045;DHT22;38930;52.766;6.884;2023-12-07T02:52:24;2.30;99.90
53045;DHT22;38930;52.766;6.884;2023-12-07T02:54:50;2.30;99.90
53045;DHT22;38930;52.766;6.884;2023-12-07T02:57:16;2.30;99.90
53045;DHT22;38930;52.766;6.884;2023-12-07T02:59:41;2.30;99.90
53045;DHT22;38930;52.766;6.884;2023-12-07T03:02:07;2.30;99.90
53045;DHT22;38930;52.766;6.884;2023-12-07T03:04:32;2.30;99.90
53045;DHT22;38930;52.766;6.884;2023-12-07T03:06:58;2.30;99.90
53045;DHT22;38930;52.766;6.884;2023-12-07T03:09:24;2.30;99.90
53045;DHT22;38930;52.766;6.884;2023-12-07T03:11:50;2.30;99.90
53045;DHT22;38930;52.766;6.884;2023-12-07T03:14:16;2.30;99.90
53045;DHT22;38930;52.766;6.884;2023-12-07T03:16:42;2.30;99.90
53045;DHT22;38930;52.766;6.884;2023-12-07T03:19:07;2.20;99.90
53045;DHT22;38930;52.766;6.884;2023-12-07T03:21:33;2.20;99.90
53045;DHT22;38930;52.766;6.884;2023-12-07T03:23:58;2.20;99.90
53045;DHT22;38930;52.766;6.884;2023-12-07T03:26:24;2.20;99.90
53045;DHT22;38930;52.766;6.884;2023-12-07T03:28:50;2.10;99.90
53045;DHT22;38930;52.766;6.884;2023-12-07T03:31:15;2.10;99.90
53045;DHT22;38930;52.766;6.884;2023-12-07T03:33:42;2.10;99.90
53045;DHT22;38930;52.766;6.884;2023-12-07T03:36:11;2.00;99.90
53045;DHT22;38930;52.766;6.884;2023-12-07T03:38:36;2.00;99.90
53045;DHT22;38930;52.766;6.884;2023-12-07T03:41:02;1.90;99.90
53045;DHT22;38930;52.766;6.884;2023-12-07T03:43:27;1.90;99.90
53045;DHT22;38930;52.766;6.884;2023-12-07T03:45:53;1.80;99.90
53045;DHT22;38930;52.766;6.884;2023-12-07T03:48:19;1.70;99.90
53045;DHT22;38930;52.766;6.884;2023-12-07T03:50:44;1.60;99.90
53045;DHT22;38930;52.766;6.884;2023-12-07T03:53:10;1.60;99.90
53045;DHT22;38930;52.766;6.884;2023-12-07T03:55:35;1.60;99.90
53045;DHT22;38930;52.766;6.884;2023-12-07T03:58:02;1.50;99.90
53045;DHT22;38930;52.766;6.884;2023-12-07T04:00:28;1.40;99.90
53045;DHT22;38930;52.766;6.884;2023-12-07T04:02:53;1.40;99.90
53045;DHT22;38930;52.766;6.884;2023-12-07T04:05:19;1.40;99.90
53045;DHT22;38930;52.766;6.884;2023-12-07T04:07:44;1.30;99.90
53045;DHT22;38930;52.766;6.884;2023-12-07T04:10:10;1.30;99.90
53045;DHT22;38930;52.766;6.884;2023-12-07T04:12:36;1.20;99.90
53045;DHT22;38930;52.766;6.884;2023-12-07T04:15:02;1.20;99.90
53045;DHT22;38930;52.766;6.884;2023-12-07T04:17:28;1.20;99.90
53045;DHT22;38930;52.766;6.884;2023-12-07T04:19:53;1.20;99.90
53045;DHT22;38930;52.766;6.884;2023-12-07T04:22:19;1.10;99.90
53045;DHT22;38930;52.766;6.884;2023-12-07T04:24:45;1.00;99.90
53045;DHT22;38930;52.766;6.884;2023-12-07T04:27:10;1.00;99.90
53045;DHT22;38930;52.766;6.884;2023-12-07T04:29:36;1.00;99.90
53045;DHT22;38930;52.766;6.884;2023-12-07T04:32:01;1.00;99.90
53045;DHT22;38930;52.766;6.884;2023-12-07T04:34:27;1.00;99.90
53045;DHT22;38930;52.766;6.884;2023-12-07T04:36:53;1.00;99.90
53045;DHT22;38930;52.766;6.884;2023-12-07T04:39:19;1.30;99.90
53045;DHT22;38930;52.766;6.884;2023-12-07T04:41:44;1.00;99.90
53045;DHT22;38930;52.766;6.884;2023-12-07T04:44:10;1.00;99.90
53045;DHT22;38930;52.766;6.884;2023-12-07T04:46:36;1.10;99.90
53045;DHT22;38930;52.766;6.884;2023-12-07T04:49:01;1.10;99.90
53045;DHT22;38930;52.766;6.884;2023-12-07T04:51:27;1.10;99.90
53045;DHT22;38930;52.766;6.884;2023-12-07T04:53:52;1.10;99.90
53045;DHT22;38930;52.766;6.884;2023-12-07T04:56:18;1.10;99.90
53045;DHT22;38930;52.766;6.884;2023-12-07T04:58:44;1.10;99.90
53045;DHT22;38930;52.766;6.884;2023-12-07T05:01:10;1.10;99.90
53045;DHT22;38930;52.766;6.884;2023-12-07T05:03:35;1.10;99.90
53045;DHT22;38930;52.766;6.884;2023-12-07T05:06:01;1.10;99.90
53045;DHT22;38930;52.766;6.884;2023-12-07T05:08:26;2.10;99.90
53045;DHT22;38930;52.766;6.884;2023-12-07T05:10:52;1.10;99.90
53045;DHT22;38930;52.766;6.884;2023-12-07T05:13:18;1.10;99.90
53045;DHT22;38930;52.766;6.884;2023-12-07T05:15:43;1.10;99.90
53045;DHT22;38930;52.766;6.884;2023-12-07T05:18:12;1.10;99.90
53045;DHT22;38930;52.766;6.884;2023-12-07T05:20:37;1.10;99.90
53045;DHT22;38930;52.766;6.884;2023-12-07T05:23:04;1.00;99.90
53045;DHT22;38930;52.766;6.884;2023-12-07T05:25:31;1.00;99.90
53045;DHT22;38930;52.766;6.884;2023-12-07T05:27:58;1.00;99.90
53045;DHT22;38930;52.766;6.884;2023-12-07T05:30:23;1.00;99.90
53045;DHT22;38930;52.766;6.884;2023-12-07T05:32:49;1.00;99.90
53045;DHT22;38930;52.766;6.884;2023-12-07T05:35:16;1.00;99.90
53045;DHT22;38930;52.766;6.884;2023-12-07T05:37:41;1.00;99.90
53045;DHT22;38930;52.766;6.884;2023-12-07T05:40:07;1.00;99.90
53045;DHT22;38930;52.766;6.884;2023-12-07T05:42:34;0.90;99.90
53045;DHT22;38930;52.766;6.884;2023-12-07T05:45:00;0.90;99.90
53045;DHT22;38930;52.766;6.884;2023-12-07T05:47:26;0.90;99.90
53045;DHT22;38930;52.766;6.884;2023-12-07T05:49:52;0.90;99.90
53045;DHT22;38930;52.766;6.884;2023-12-07T05:52:20;0.90;99.90
53045;DHT22;38930;52.766;6.884;2023-12-07T05:54:46;0.90;99.90
53045;DHT22;38930;52.766;6.884;2023-12-07T05:57:13;0.90;99.90
53045;DHT22;38930;52.766;6.884;2023-12-07T05:59:39;0.80;99.90
53045;DHT22;38930;52.766;6.884;2023-12-07T06:02:05;0.80;99.90
53045;DHT22;38930;52.766;6.884;2023-12-07T06:04:30;0.90;99.90
53045;DHT22;38930;52.766;6.884;2023-12-07T06:06:56;0.90;99.90
53045;DHT22;38930;52.766;6.884;2023-12-07T06:09:22;0.80;99.90
53045;DHT22;38930;52.766;6.884;2023-12-07T06:11:48;0.90;99.90
53045;DHT22;38930;52.766;6.884;2023-12-07T06:14:13;0.90;99.90
53045;DHT22;38930;52.766;6.884;2023-12-07T06:16:39;0.90;99.90
53045;DHT22;38930;52.766;6.884;2023-12-07T06:19:04;0.90;99.90
53045;DHT22;38930;52.766;6.884;2023-12-07T06:21:30;0.90;99.90
53045;DHT22;38930;52.766;6.884;2023-12-07T06:23:56;0.90;99.90
53045;DHT22;38930;52.766;6.884;2023-12-07T06:26:24;0.90;99.90
53045;DHT22;38930;52.766;6.884;2023-12-07T06:28:50;1.00;99.90
53045;DHT22;38930;52.766;6.884;2023-12-07T06:31:15;1.00;99.90
53045;DHT22;38930;52.766;6.884;2023-12-07T06:33:45;1.00;99.90
53045;DHT22;38930;52.766;6.884;2023-12-07T06:36:11;1.00;99.90
53045;DHT22;38930;52.766;6.884;2023-12-07T06:38:37;1.00;99.90
53045;DHT22;38930;52.766;6.884;2023-12-07T06:41:04;1.00;99.90
53045;DHT22;38930;52.766;6.884;2023-12-07T06:43:29;1.00;99.90
53045;DHT22;38930;52.766;6.884;2023-12-07T06:45:55;1.10;99.90
53045;DHT22;38930;52.766;6.884;2023-12-07T06:48:21;1.00;99.90
53045;DHT22;38930;52.766;6.884;2023-12-07T06:50:46;1.00;99.90
53045;DHT22;38930;52.766;6.884;2023-12-07T06:53:13;1.10;99.90
53045;DHT22;38930;52.766;6.884;2023-12-07T06:55:39;1.10;99.90
53045;DHT22;38930;52.766;6.884;2023-12-07T06:58:06;1.10;99.90
53045;DHT22;38930;52.766;6.884;2023-12-07T07:00:32;1.10;99.90
53045;DHT22;38930;52.766;6.884;2023-12-07T07:02:58;1.10;99.90
53045;DHT22;38930;52.766;6.884;2023-12-07T07:05:24;1.10;99.90
53045;DHT22;38930;52.766;6.884;2023-12-07T07:07:49;1.10;99.90
53045;DHT22;38930;52.766;6.884;2023-12-07T07:10:16;1.10;99.90
53045;DHT22;38930;52.766;6.884;2023-12-07T07:12:42;1.10;99.90
53045;DHT22;38930;52.766;6.884;2023-12-07T07:15:08;1.10;99.90
53045;DHT22;38930;52.766;6.884;2023-12-07T07:17:34;1.20;99.90
53045;DHT22;38930;52.766;6.884;2023-12-07T07:20:00;1.20;99.90
53045;DHT22;38930;52.766;6.884;2023-12-07T07:22:25;1.20;99.90
53045;DHT22;38930;52.766;6.884;2023-12-07T07:24:51;1.20;99.90
53045;DHT22;38930;52.766;6.884;2023-12-07T07:27:17;1.20;99.90
53045;DHT22;38930;52.766;6.884;2023-12-07T07:29:43;1.20;99.90
53045;DHT22;38930;52.766;6.884;2023-12-07T07:32:09;1.20;99.90
53045;DHT22;38930;52.766;6.884;2023-12-07T07:34:35;1.20;99.90
53045;DHT22;38930;52.766;6.884;2023-12-07T07:37:01;1.20;99.90
53045;DHT22;38930;52.766;6.884;2023-12-07T07:39:28;1.20;99.90
53045;DHT22;38930;52.766;6.884;2023-12-07T07:41:54;1.20;99.90
53045;DHT22;38930;52.766;6.884;2023-12-07T07:44:19;1.20;99.90
53045;DHT22;38930;52.766;6.884;2023-12-07T07:46:45;1.20;99.90
53045;DHT22;38930;52.766;6.884;2023-12-07T07:49:11;1.20;99.90
53045;DHT22;38930;52.766;6.884;2023-12-07T07:51:37;1.20;99.90
53045;DHT22;38930;52.766;6.884;2023-12-07T07:54:04;1.20;99.90
53045;DHT22;38930;52.766;6.884;2023-12-07T07:56:29;1.20;99.90
53045;DHT22;38930;52.766;6.884;2023-12-07T07:58:55;1.20;99.90
53045;DHT22;38930;52.766;6.884;2023-12-07T08:01:21;1.30;99.90
53045;DHT22;38930;52.766;6.884;2023-12-07T08:03:46;1.20;99.90
53045;DHT22;38930;52.766;6.884;2023-12-07T08:06:12;1.20;99.90
53045;DHT22;38930;52.766;6.884;2023-12-07T08:08:38;1.20;99.90
53045;DHT22;38930;52.766;6.884;2023-12-07T08:11:03;1.20;99.90
53045;DHT22;38930;52.766;6.884;2023-12-07T08:13:30;1.60;99.90
53045;DHT22;38930;52.766;6.884;2023-12-07T08:15:56;1.30;99.90
53045;DHT22;38930;52.766;6.884;2023-12-07T08:18:22;1.30;99.90
53045;DHT22;38930;52.766;6.884;2023-12-07T08:20:48;1.30;99.90
53045;DHT22;38930;52.766;6.884;2023-12-07T08:23:13;1.30;99.90
53045;DHT22;38930;52.766;6.884;2023-12-07T08:25:39;1.30;99.90
53045;DHT22;38930;52.766;6.884;2023-12-07T08:28:05;1.30;99.90
53045;DHT22;38930;52.766;6.884;2023-12-07T08:30:31;1.30;99.90
53045;DHT22;38930;52.766;6.884;2023-12-07T08:32:57;1.30;99.90
53045;DHT22;38930;52.766;6.884;2023-12-07T08:35:22;1.30;99.90
53045;DHT22;38930;52.766;6.884;2023-12-07T08:37:48;1.30;99.90
53045;DHT22;38930;52.766;6.884;2023-12-07T08:40:14;1.30;99.90
53045;DHT22;38930;52.766;6.884;2023-12-07T08:42:43;1.30;99.90
53045;DHT22;38930;52.766;6.884;2023-12-07T08:45:09;1.20;99.90
53045;DHT22;38930;52.766;6.884;2023-12-07T08:47:35;1.20;99.90
53045;DHT22;38930;52.766;6.884;2023-12-07T08:50:00;1.20;99.90
53045;DHT22;38930;52.766;6.884;2023-12-07T08:52:26;1.20;99.90
53045;DHT22;38930;52.766;6.884;2023-12-07T08:54:52;1.20;99.90
53045;DHT22;38930;52.766;6.884;2023-12-07T08:57:18;1.20;99.90
53045;DHT22;38930;52.766;6.884;2023-12-07T08:59:44;1.30;99.90
53045;DHT22;38930;52.766;6.884;2023-12-07T09:02:09;1.20;99.90
53045;DHT22;38930;52.766;6.884;2023-12-07T09:04:35;1.20;99.90
53045;DHT22;38930;52.766;6.884;2023-12-07T09:07:01;1.30;99.90
53045;DHT22;38930;52.766;6.884;2023-12-07T09:09:26;1.10;99.90
53045;DHT22;38930;52.766;6.884;2023-12-07T09:11:52;1.10;99.90
53045;DHT22;38930;52.766;6.884;2023-12-07T09:14:18;1.10;99.90
53045;DHT22;38930;52.766;6.884;2023-12-07T09:16:45;1.10;99.90
53045;DHT22;38930;52.766;6.884;2023-12-07T09:19:12;1.10;99.90
53045;DHT22;38930;52.766;6.884;2023-12-07T09:21:39;1.10;99.90
53045;DHT22;38930;52.766;6.884;2023-12-07T09:24:05;1.10;99.90
53045;DHT22;38930;52.766;6.884;2023-12-07T09:26:32;1.10;99.90
53045;DHT22;38930;52.766;6.884;2023-12-07T09:28:57;1.10;99.90
53045;DHT22;38930;52.766;6.884;2023-12-07T09:31:23;1.20;99.90
53045;DHT22;38930;52.766;6.884;2023-12-07T09:33:49;1.00;99.90
53045;DHT22;38930;52.766;6.884;2023-12-07T09:36:17;1.00;99.90
53045;DHT22;38930;52.766;6.884;2023-12-07T09:38:47;0.80;99.90
53045;DHT22;38930;52.766;6.884;2023-12-07T09:41:13;0.70;99.90
53045;DHT22;38930;52.766;6.884;2023-12-07T09:43:39;0.70;99.90
53045;DHT22;38930;52.766;6.884;2023-12-07T09:46:05;0.60;99.90
53045;DHT22;38930;52.766;6.884;2023-12-07T09:48:32;0.60;99.90
53045;DHT22;38930;52.766;6.884;2023-12-07T09:50:59;0.60;99.90
53045;DHT22;38930;52.766;6.884;2023-12-07T09:53:27;0.60;99.90
53045;DHT22;38930;52.766;6.884;2023-12-07T09:55:54;0.60;99.90
53045;DHT22;38930;52.766;6.884;2023-12-07T09:58:19;0.60;99.90
53045;DHT22;38930;52.766;6.884;2023-12-07T10:00:47;0.60;99.90
53045;DHT22;38930;52.766;6.884;2023-12-07T10:03:20;0.60;99.90
53045;DHT22;38930;52.766;6.884;2023-12-07T10:05:54;0.60;99.90
53045;DHT22;38930;52.766;6.884;2023-12-07T10:08:28;0.60;99.90
53045;DHT22;38930;52.766;6.884;2023-12-07T10:11:04;0.50;99.90
53045;DHT22;38930;52.766;6.884;2023-12-07T10:13:31;0.60;99.90
53045;DHT22;38930;52.766;6.884;2023-12-07T10:16:10;0.60;99.90
53045;DHT22;38930;52.766;6.884;2023-12-07T10:18:36;0.60;99.90
53045;DHT22;38930;52.766;6.884;2023-12-07T10:21:02;0.70;99.90
53045;DHT22;38930;52.766;6.884;2023-12-07T10:23:28;0.70;99.90
53045;DHT22;38930;52.766;6.884;2023-12-07T10:25:58;0.60;99.90
53045;DHT22;38930;52.766;6.884;2023-12-07T10:28:25;0.60;99.90
53045;DHT22;38930;52.766;6.884;2023-12-07T10:30:51;0.60;99.90
53045;DHT22;38930;52.766;6.884;2023-12-07T10:33:16;0.60;99.90
53045;DHT22;38930;52.766;6.884;2023-12-07T10:35:44;0.60;99.90
53045;DHT22;38930;52.766;6.884;2023-12-07T10:38:10;0.60;99.90
53045;DHT22;38930;52.766;6.884;2023-12-07T10:40:36;0.60;99.90
53045;DHT22;38930;52.766;6.884;2023-12-07T10:43:05;0.60;99.90
53045;DHT22;38930;52.766;6.884;2023-12-07T10:45:31;0.60;99.90
53045;DHT22;38930;52.766;6.884;2023-12-07T10:48:02;0.60;99.90
53045;DHT22;38930;52.766;6.884;2023-12-07T10:50:31;0.70;99.90
53045;DHT22;38930;52.766;6.884;2023-12-07T10:52:59;0.60;99.90
53045;DHT22;38930;52.766;6.884;2023-12-07T10:55:29;0.60;99.90
53045;DHT22;38930;52.766;6.884;2023-12-07T10:57:58;0.60;99.90
53045;DHT22;38930;52.766;6.884;2023-12-07T11:00:25;0.60;99.90
53045;DHT22;38930;52.766;6.884;2023-12-07T11:02:53;0.60;99.90
53045;DHT22;38930;52.766;6.884;2023-12-07T11:05:19;0.60;99.90
53045;DHT22;38930;52.766;6.884;2023-12-07T11:08:06;0.60;99.90
53045;DHT22;38930;52.766;6.884;2023-12-07T11:13:26;0.80;99.90
53045;DHT22;38930;52.766;6.884;2023-12-07T11:15:52;0.80;99.90
53045;DHT22;38930;52.766;6.884;2023-12-07T11:18:18;0.80;99.90
53045;DHT22;38930;52.766;6.884;2023-12-07T11:20:45;0.80;99.90
53045;DHT22;38930;52.766;6.884;2023-12-07T11:23:16;0.80;99.90
53045;DHT22;38930;52.766;6.884;2023-12-07T11:25:45;0.90;99.90
53045;DHT22;38930;52.766;6.884;2023-12-07T11:28:11;0.90;99.90
53045;DHT22;38930;52.766;6.884;2023-12-07T11:30:38;0.90;99.90
53045;DHT22;38930;52.766;6.884;2023-12-07T11:33:05;0.90;99.90
53045;DHT22;38930;52.766;6.884;2023-12-07T11:35:31;1.00;99.90
53045;DHT22;38930;52.766;6.884;2023-12-07T11:38:07;1.00;99.90
53045;DHT22;38930;52.766;6.884;2023-12-07T11:40:38;1.10;99.90
53045;DHT22;38930;52.766;6.884;2023-12-07T11:43:05;1.00;99.90
53045;DHT22;38930;52.766;6.884;2023-12-07T11:45:41;1.10;99.90
53045;DHT22;38930;52.766;6.884;2023-12-07T11:48:12;1.10;99.90
53045;DHT22;38930;52.766;6.884;2023-12-07T11:53:23;1.10;99.90
53045;DHT22;38930;52.766;6.884;2023-12-07T11:55:49;1.10;99.90
53045;DHT22;38930;52.766;6.884;2023-12-07T11:58:15;1.10;99.90
53045;DHT22;38930;52.766;6.884;2023-12-07T12:00:41;1.10;99.90
53045;DHT22;38930;52.766;6.884;2023-12-07T12:03:07;1.10;99.90
53045;DHT22;38930;52.766;6.884;2023-12-07T12:05:32;1.10;99.90
53045;DHT22;38930;52.766;6.884;2023-12-07T12:07:58;1.10;99.90
53045;DHT22;38930;52.766;6.884;2023-12-07T12:10:23;1.10;99.90
53045;DHT22;38930;52.766;6.884;2023-12-07T12:12:51;1.20;99.90
53045;DHT22;38930;52.766;6.884;2023-12-07T12:15:18;1.20;99.90
53045;DHT22;38930;52.766;6.884;2023-12-07T12:17:45;1.20;99.90
53045;DHT22;38930;52.766;6.884;2023-12-07T12:20:14;1.30;99.90
53045;DHT22;38930;52.766;6.884;2023-12-07T12:22:43;1.30;99.90
53045;DHT22;38930;52.766;6.884;2023-12-07T12:25:09;1.30;99.90
53045;DHT22;38930;52.766;6.884;2023-12-07T12:27:36;1.30;99.90
53045;DHT22;38930;52.766;6.884;2023-12-07T12:30:02;1.40;99.90
53045;DHT22;38930;52.766;6.884;2023-12-07T12:32:41;1.40;99.90
53045;DHT22;38930;52.766;6.884;2023-12-07T12:35:08;1.40;99.90
53045;DHT22;38930;52.766;6.884;2023-12-07T12:37:33;1.50;99.90
53045;DHT22;38930;52.766;6.884;2023-12-07T12:40:05;1.50;99.90
53045;DHT22;38930;52.766;6.884;2023-12-07T12:42:31;1.60;99.90
53045;DHT22;38930;52.766;6.884;2023-12-07T12:44:57;1.60;99.90
53045;DHT22;38930;52.766;6.884;2023-12-07T12:47:23;1.60;99.90
53045;DHT22;38930;52.766;6.884;2023-12-07T12:49:48;1.60;99.90
53045;DHT22;38930;52.766;6.884;2023-12-07T12:52:16;1.60;99.90
53045;DHT22;38930;52.766;6.884;2023-12-07T12:54:43;1.70;99.90
53045;DHT22;38930;52.766;6.884;2023-12-07T12:57:10;1.70;99.90
53045;DHT22;38930;52.766;6.884;2023-12-07T12:59:35;1.70;99.90
53045;DHT22;38930;52.766;6.884;2023-12-07T13:02:02;1.70;99.90
53045;DHT22;38930;52.766;6.884;2023-12-07T13:04:30;1.70;99.90
53045;DHT22;38930;52.766;6.884;2023-12-07T13:06:56;1.80;99.90
53045;DHT22;38930;52.766;6.884;2023-12-07T13:09:22;1.80;99.90
53045;DHT22;38930;52.766;6.884;2023-12-07T13:11:47;1.80;99.90
53045;DHT22;38930;52.766;6.884;2023-12-07T13:14:14;1.80;99.90
53045;DHT22;38930;52.766;6.884;2023-12-07T13:16:40;1.80;99.90
53045;DHT22;38930;52.766;6.884;2023-12-07T13:19:06;1.80;99.90
53045;DHT22;38930;52.766;6.884;2023-12-07T13:21:32;1.80;99.90
53045;DHT22;38930;52.766;6.884;2023-12-07T13:23:58;1.90;99.90
53045;DHT22;38930;52.766;6.884;2023-12-07T13:26:24;1.90;99.90
53045;DHT22;38930;52.766;6.884;2023-12-07T13:28:50;1.90;99.90
53045;DHT22;38930;52.766;6.884;2023-12-07T13:31:15;1.90;99.90
53045;DHT22;38930;52.766;6.884;2023-12-07T13:33:41;1.90;99.90
53045;DHT22;38930;52.766;6.884;2023-12-07T13:36:07;2.00;99.90
53045;DHT22;38930;52.766;6.884;2023-12-07T13:38:33;2.00;99.90
53045;DHT22;38930;52.766;6.884;2023-12-07T13:41:00;2.00;99.90
53045;DHT22;38930;52.766;6.884;2023-12-07T13:43:27;2.10;99.90
53045;DHT22;38930;52.766;6.884;2023-12-07T13:45:55;2.10;99.90
53045;DHT22;38930;52.766;6.884;2023-12-07T13:48:20;2.10;99.90
53045;DHT22;38930;52.766;6.884;2023-12-07T13:50:46;2.00;99.90
53045;DHT22;38930;52.766;6.884;2023-12-07T13:53:11;2.20;99.90
53045;DHT22;38930;52.766;6.884;2023-12-07T13:55:38;2.10;99.90
53045;DHT22;38930;52.766;6.884;2023-12-07T13:58:05;2.10;99.90
53045;DHT22;38930;52.766;6.884;2023-12-07T14:00:33;2.10;99.90
53045;DHT22;38930;52.766;6.884;2023-12-07T14:02:59;2.20;99.90
53045;DHT22;38930;52.766;6.884;2023-12-07T14:05:25;2.20;99.90
53045;DHT22;38930;52.766;6.884;2023-12-07T14:07:51;2.20;99.90
53045;DHT22;38930;52.766;6.884;2023-12-07T14:10:16;2.20;99.90
53045;DHT22;38930;52.766;6.884;2023-12-07T14:12:42;2.20;99.90
53045;DHT22;38930;52.766;6.884;2023-12-07T14:15:08;2.20;99.90
53045;DHT22;38930;52.766;6.884;2023-12-07T14:17:34;2.20;99.90
53045;DHT22;38930;52.766;6.884;2023-12-07T14:20:07;2.20;99.90
53045;DHT22;38930;52.766;6.884;2023-12-07T14:22:34;2.20;99.90
53045;DHT22;38930;52.766;6.884;2023-12-07T14:25:00;2.20;99.90
53045;DHT22;38930;52.766;6.884;2023-12-07T14:27:26;2.20;99.90
53045;DHT22;38930;52.766;6.884;2023-12-07T14:29:52;2.20;99.90
53045;DHT22;38930;52.766;6.884;2023-12-07T14:32:18;2.20;99.90
53045;DHT22;38930;52.766;6.884;2023-12-07T14:34:43;2.20;99.90
53045;DHT22;38930;52.766;6.884;2023-12-07T14:37:09;2.20;99.90
53045;DHT22;38930;52.766;6.884;2023-12-07T14:39:35;2.20;99.90
53045;DHT22;38930;52.766;6.884;2023-12-07T14:42:02;2.10;99.90
53045;DHT22;38930;52.766;6.884;2023-12-07T14:44:28;2.10;99.90
53045;DHT22;38930;52.766;6.884;2023-12-07T14:46:54;2.10;99.90
53045;DHT22;38930;52.766;6.884;2023-12-07T14:49:20;2.10;99.90
53045;DHT22;38930;52.766;6.884;2023-12-07T14:51:49;2.10;99.90
53045;DHT22;38930;52.766;6.884;2023-12-07T14:54:16;2.10;99.90
53045;DHT22;38930;52.766;6.884;2023-12-07T14:56:42;2.10;99.90
53045;DHT22;38930;52.766;6.884;2023-12-07T14:59:09;2.10;99.90
53045;DHT22;38930;52.766;6.884;2023-12-07T15:01:40;2.10;99.90
53045;DHT22;38930;52.766;6.884;2023-12-07T15:04:06;2.10;99.90
53045;DHT22;38930;52.766;6.884;2023-12-07T15:06:32;2.00;99.90
53045;DHT22;38930;52.766;6.884;2023-12-07T15:08:59;2.40;99.90
53045;DHT22;38930;52.766;6.884;2023-12-07T15:11:25;2.00;99.90
53045;DHT22;38930;52.766;6.884;2023-12-07T15:13:50;2.00;99.90
53045;DHT22;38930;52.766;6.884;2023-12-07T15:16:16;1.90;99.90
53045;DHT22;38930;52.766;6.884;2023-12-07T15:18:42;1.90;99.90
53045;DHT22;38930;52.766;6.884;2023-12-07T15:21:12;1.80;99.90
53045;DHT22;38930;52.766;6.884;2023-12-07T15:23:39;1.80;99.90
53045;DHT22;38930;52.766;6.884;2023-12-07T15:26:05;1.80;99.90
53045;DHT22;38930;52.766;6.884;2023-12-07T15:28:33;1.80;99.90
53045;DHT22;38930;52.766;6.884;2023-12-07T15:30:59;1.80;99.90
53045;DHT22;38930;52.766;6.884;2023-12-07T15:33:25;1.80;99.90
53045;DHT22;38930;52.766;6.884;2023-12-07T15:35:50;1.80;99.90
53045;DHT22;38930;52.766;6.884;2023-12-07T15:38:16;1.80;99.90
53045;DHT22;38930;52.766;6.884;2023-12-07T15:40:41;1.80;99.90
53045;DHT22;38930;52.766;6.884;2023-12-07T15:43:08;1.80;99.90
53045;DHT22;38930;52.766;6.884;2023-12-07T15:45:34;1.80;99.90